Indian Stream Twp, Maine
Current Conditions -  °F | °C
As of 1:35 PM on Thursday 23 Oct 2014 (Local Time) from KWVL Reporting Station
Overcast Overcast  
Wind Chill: 42°   Ceiling: 600
Heat Index: 48°   Visibility: 7mi
Dew Point: 45°   Wind: 15mph
Humidity: 87%   Direction: 30°NNE
Pressure: 29.81"   Gusts: 22mph
Location:  45.3915°N, 69.9186°W
Report Text: KWVL 231735Z 03013G19KT 7SM OVC006 09/07 A2981 RMK AO1 P0002
Loading
Personal Weather Stations






























Interactive Weather Map
Tropical Storm Tracking
New forecast layout! Learn more

10-Day Weather Forecast

Advertisements
Track Severe Weather on mobile